createdAt,value
2019-03-18T00:00:01.802Z,74.18
2019-03-18T00:02:30.002Z,73.86
2019-03-18T00:04:58.200Z,73.85
2019-03-18T00:07:26.399Z,74.01
2019-03-18T00:09:54.587Z,73.93
2019-03-18T00:12:22.802Z,73.71
2019-03-18T00:15:00.694Z,73.70
2019-03-18T00:17:20.929Z,74.10
2019-03-18T00:19:49.128Z,74.16
2019-03-18T00:22:17.325Z,74.20
2019-03-18T00:24:45.528Z,73.87
2019-03-18T00:27:13.729Z,74.03
2019-03-18T00:29:41.933Z,74.06
2019-03-18T00:32:10.127Z,73.57
2019-03-18T00:34:38.321Z,73.93
2019-03-18T00:37:06.507Z,74.17
2019-03-18T00:39:34.702Z,73.84
2019-03-18T00:42:02.888Z,74.29
2019-03-18T00:44:31.090Z,74.29
2019-03-18T00:46:59.281Z,74.13
2019-03-18T00:49:27.481Z,74.26
2019-03-18T00:51:55.673Z,74.22
2019-03-18T00:54:23.891Z,73.83
2019-03-18T00:56:52.087Z,74.03
2019-03-18T00:59:20.298Z,74.43
2019-03-18T01:01:48.486Z,74.28
2019-03-18T01:04:16.690Z,74.01
2019-03-18T01:06:44.885Z,74.21
2019-03-18T01:09:13.160Z,73.89
2019-03-18T01:11:41.352Z,73.96
2019-03-18T01:14:09.542Z,73.86
2019-03-18T01:16:37.730Z,74.30
2019-03-18T01:19:05.942Z,74.15
2019-03-18T01:21:34.135Z,73.79
2019-03-18T01:24:02.322Z,73.94
2019-03-18T01:26:30.529Z,73.83
2019-03-18T01:28:58.794Z,74.01
2019-03-18T01:31:26.996Z,74.20
2019-03-18T01:33:55.186Z,74.03
2019-03-18T01:36:23.401Z,74.14
2019-03-18T01:38:51.581Z,74.06
2019-03-18T01:41:19.788Z,74.08
2019-03-18T01:43:47.969Z,73.94
2019-03-18T01:46:16.178Z,74.16
2019-03-18T01:48:44.365Z,74.17
2019-03-18T01:51:12.565Z,74.33
2019-03-18T01:53:40.760Z,73.98
2019-03-18T01:56:08.958Z,74.25
2019-03-18T01:58:37.145Z,74.48
2019-03-18T02:01:05.344Z,74.13
2019-03-18T02:03:33.545Z,74.19
2019-03-18T02:06:01.758Z,74.06
2019-03-18T02:08:29.946Z,74.25
2019-03-18T02:10:58.154Z,74.34
2019-03-18T02:13:26.339Z,74.25
2019-03-18T02:15:54.609Z,74.27
2019-03-18T02:18:22.804Z,74.31
2019-03-18T02:20:51.001Z,74.64
2019-03-18T02:23:20.658Z,74.62
2019-03-18T02:25:48.860Z,74.45
2019-03-18T02:28:17.061Z,74.72
2019-03-18T02:30:45.275Z,75.31
2019-03-18T02:33:13.459Z,75.61
2019-03-18T02:35:41.660Z,75.95
2019-03-18T02:38:09.855Z,75.88
2019-03-18T02:40:38.062Z,75.90
2019-03-18T02:43:06.256Z,75.45
2019-03-18T02:45:34.457Z,75.06
2019-03-18T02:48:02.663Z,74.89
2019-03-18T02:50:31.580Z,74.76
2019-03-18T02:52:59.770Z,74.50
2019-03-18T02:55:27.972Z,74.40
2019-03-18T02:57:56.177Z,74.28
2019-03-18T03:00:24.381Z,74.59
2019-03-18T03:02:52.569Z,74.55
2019-03-18T03:05:20.767Z,74.38
2019-03-18T03:07:48.955Z,74.48
2019-03-18T03:10:17.160Z,74.65
2019-03-18T03:12:45.359Z,74.45
2019-03-18T03:15:14.572Z,74.45
2019-03-18T03:17:42.852Z,74.08
2019-03-18T03:20:11.326Z,73.73
2019-03-18T03:22:39.572Z,73.36
2019-03-18T03:25:09.635Z,73.26
2019-03-18T03:27:37.810Z,73.39
2019-03-18T03:30:09.073Z,73.43
2019-03-18T03:32:37.317Z,73.44
2019-03-18T03:35:06.310Z,73.48
2019-03-18T03:37:34.519Z,73.83
2019-03-18T03:40:02.725Z,73.69
2019-03-18T03:42:30.922Z,73.79
2019-03-18T03:44:59.111Z,74.02
2019-03-18T03:47:27.312Z,74.31
2019-03-18T03:49:55.518Z,74.48
2019-03-18T03:52:23.705Z,74.73
2019-03-18T03:54:51.918Z,74.40
2019-03-18T03:57:20.121Z,75.46
2019-03-18T03:59:48.314Z,75.26
2019-03-18T04:02:16.528Z,75.48
2019-03-18T04:04:44.718Z,75.50
2019-03-18T04:07:12.910Z,75.64
2019-03-18T04:09:41.125Z,75.85
2019-03-18T04:12:09.335Z,75.50
2019-03-18T04:14:37.525Z,75.63
2019-03-18T04:17:05.719Z,76.01
2019-03-18T04:19:33.924Z,75.86
2019-03-18T04:22:02.115Z,75.99
2019-03-18T04:24:30.332Z,76.04
2019-03-18T04:26:58.503Z,75.97
2019-03-18T04:29:26.705Z,75.78
2019-03-18T04:31:54.902Z,75.93
2019-03-18T04:34:23.116Z,75.75
2019-03-18T04:36:51.310Z,75.68
2019-03-18T04:39:19.510Z,75.54
2019-03-18T04:41:47.710Z,75.77
2019-03-18T04:44:15.899Z,75.67
2019-03-18T04:46:44.102Z,75.67
2019-03-18T04:49:12.295Z,75.87
2019-03-18T04:51:40.496Z,75.78
2019-03-18T04:54:08.698Z,75.55
2019-03-18T04:56:36.892Z,75.53
2019-03-18T04:59:05.078Z,75.70
2019-03-18T05:01:33.293Z,75.66
2019-03-18T05:04:01.478Z,75.56
2019-03-18T05:06:29.682Z,75.31
2019-03-18T05:08:57.872Z,75.01
2019-03-18T05:11:26.070Z,74.76
2019-03-18T05:13:54.370Z,74.65
2019-03-18T05:16:22.708Z,74.91
2019-03-18T05:18:50.899Z,74.65
2019-03-18T05:21:19.100Z,74.74
2019-03-18T05:23:47.284Z,74.80
2019-03-18T05:26:15.484Z,74.66
2019-03-18T05:28:43.676Z,74.88
2019-03-18T05:31:11.897Z,74.92
2019-03-18T05:33:40.070Z,74.83
2019-03-18T05:36:08.266Z,74.58
2019-03-18T05:38:36.454Z,74.96
2019-03-18T05:41:04.663Z,74.77
2019-03-18T05:43:32.854Z,74.99
2019-03-18T05:46:01.057Z,74.91
2019-03-18T05:48:29.244Z,74.54
2019-03-18T05:50:57.446Z,74.06
2019-03-18T05:53:25.648Z,73.98
2019-03-18T05:55:53.842Z,73.86
2019-03-18T05:58:22.039Z,74.05
2019-03-18T06:00:50.231Z,73.56
2019-03-18T06:03:18.430Z,73.58
2019-03-18T06:05:46.624Z,73.32
2019-03-18T06:08:14.825Z,73.30
2019-03-18T06:10:43.022Z,73.24
2019-03-18T06:13:11.220Z,73.19
2019-03-18T06:15:39.881Z,72.95
2019-03-18T06:18:08.087Z,73.09
2019-03-18T06:20:36.281Z,72.95
2019-03-18T06:23:04.489Z,72.91
2019-03-18T06:25:32.685Z,72.81
2019-03-18T06:28:00.899Z,72.73
2019-03-18T06:30:29.102Z,72.49
2019-03-18T06:32:57.322Z,72.55
2019-03-18T06:35:25.520Z,73.56
2019-03-18T06:37:53.726Z,73.88
2019-03-18T06:40:21.924Z,74.20
2019-03-18T06:42:50.134Z,73.84
2019-03-18T06:45:18.329Z,73.97
2019-03-18T06:47:46.553Z,74.29
2019-03-18T06:50:14.751Z,74.35
2019-03-18T06:52:42.956Z,73.98
2019-03-18T06:55:11.155Z,74.59
2019-03-18T06:57:39.367Z,74.55
2019-03-18T07:00:14.737Z,74.36
2019-03-18T07:02:42.953Z,74.71
2019-03-18T07:05:11.419Z,74.48
2019-03-18T07:07:39.628Z,74.25
2019-03-18T07:10:10.200Z,73.92
2019-03-18T07:12:38.378Z,74.00
2019-03-18T07:15:06.576Z,73.61
2019-03-18T07:17:34.784Z,73.32
2019-03-18T07:20:03.350Z,73.02
2019-03-18T07:22:31.569Z,72.93
2019-03-18T07:24:59.766Z,72.72
2019-03-18T07:27:27.981Z,72.67
2019-03-18T07:29:56.173Z,72.47
2019-03-18T07:32:24.383Z,71.92
2019-03-18T07:34:52.586Z,72.23
2019-03-18T07:37:20.807Z,72.18
2019-03-18T07:39:49.004Z,72.10
2019-03-18T07:42:17.206Z,72.22
2019-03-18T07:44:45.425Z,72.28
2019-03-18T07:47:13.625Z,72.01
2019-03-18T07:49:41.840Z,71.95
2019-03-18T07:52:10.041Z,71.84
2019-03-18T07:54:38.235Z,71.54
2019-03-18T07:57:06.515Z,71.62
2019-03-18T07:59:34.719Z,71.71
2019-03-18T08:02:02.943Z,71.33
2019-03-18T08:04:37.286Z,71.59
2019-03-18T08:07:02.303Z,71.87
2019-03-18T08:09:30.514Z,71.94
2019-03-18T08:11:58.716Z,71.34
2019-03-18T08:14:26.936Z,71.48
2019-03-18T08:16:55.134Z,71.32
2019-03-18T08:19:23.332Z,71.14
2019-03-18T08:21:51.539Z,70.57
2019-03-18T08:24:19.749Z,70.46
2019-03-18T08:26:47.942Z,70.36
2019-03-18T08:29:16.156Z,70.56
2019-03-18T08:31:44.357Z,70.36
2019-03-18T08:34:12.550Z,69.94
2019-03-18T08:36:40.763Z,69.96
2019-03-18T08:39:08.970Z,69.92
2019-03-18T08:41:37.171Z,69.91
2019-03-18T08:44:05.469Z,69.55
2019-03-18T08:46:33.659Z,69.56
2019-03-18T08:49:01.855Z,69.74
2019-03-18T08:51:30.071Z,69.36
2019-03-18T08:53:58.267Z,69.34
2019-03-18T08:56:29.501Z,68.72
2019-03-18T08:58:56.399Z,68.61
2019-03-18T09:01:24.612Z,68.13
2019-03-18T09:03:52.809Z,68.44
2019-03-18T09:06:21.022Z,68.27
2019-03-18T09:08:49.216Z,68.33
2019-03-18T09:11:17.431Z,68.38
2019-03-18T09:13:46.369Z,66.93
2019-03-18T09:16:14.580Z,67.07
2019-03-18T09:18:42.775Z,68.03
2019-03-18T09:21:10.994Z,67.90
2019-03-18T09:23:39.193Z,67.67
2019-03-18T09:26:07.398Z,67.47
2019-03-18T09:28:35.600Z,67.64
2019-03-18T09:31:03.823Z,67.20
2019-03-18T09:33:32.016Z,66.66
2019-03-18T09:36:00.212Z,66.77
2019-03-18T09:38:28.420Z,66.94
2019-03-18T09:40:56.620Z,67.09
2019-03-18T09:43:24.825Z,67.03
2019-03-18T09:45:54.581Z,66.18
2019-03-18T09:48:22.886Z,66.17
2019-03-18T09:50:51.082Z,65.30
2019-03-18T09:53:19.319Z,65.61
2019-03-18T09:55:47.518Z,65.11
2019-03-18T09:58:15.714Z,65.24
2019-03-18T10:00:43.924Z,63.99
2019-03-18T10:03:12.128Z,63.99
2019-03-18T10:05:40.347Z,63.48
2019-03-18T10:08:08.551Z,63.86
2019-03-18T10:10:36.750Z,63.11
2019-03-18T10:13:04.955Z,64.35
2019-03-18T10:15:33.152Z,61.67
2019-03-18T10:18:02.994Z,63.11
2019-03-18T10:20:31.193Z,63.87
2019-03-18T10:22:59.456Z,63.37
2019-03-18T10:25:27.667Z,63.32
2019-03-18T10:27:55.870Z,64.48
2019-03-18T10:30:24.087Z,67.15
2019-03-18T10:32:52.281Z,67.15
2019-03-18T10:35:20.481Z,67.41
2019-03-18T10:37:48.695Z,68.66
2019-03-18T10:40:16.889Z,68.83
2019-03-18T10:42:45.111Z,68.77
2019-03-18T10:45:13.859Z,68.95
2019-03-18T10:47:42.045Z,68.95
2019-03-18T10:50:15.644Z,68.14
2019-03-18T10:52:43.888Z,68.70
2019-03-18T10:55:12.066Z,68.42
2019-03-18T10:57:40.269Z,68.37
2019-03-18T11:00:14.530Z,67.93
2019-03-18T11:02:44.985Z,67.27
2019-03-18T11:05:12.651Z,66.89
2019-03-18T11:07:40.851Z,66.61
2019-03-18T11:10:15.816Z,66.57
2019-03-18T11:12:44.019Z,66.41
2019-03-18T11:15:19.387Z,66.53
2019-03-18T11:17:47.588Z,66.16
2019-03-18T11:20:16.118Z,66.53
2019-03-18T11:22:44.567Z,66.72
2019-03-18T11:25:13.703Z,65.82
2019-03-18T11:27:41.912Z,65.61
2019-03-18T11:30:17.726Z,65.55
2019-03-18T11:32:45.919Z,66.29
2019-03-18T11:35:14.143Z,67.34
2019-03-18T11:37:43.965Z,67.34
2019-03-18T11:40:13.608Z,67.17
2019-03-18T11:42:41.811Z,67.32
2019-03-18T11:45:11.954Z,67.60
2019-03-18T11:47:40.154Z,66.79
2019-03-18T11:50:16.440Z,66.17
2019-03-18T11:52:44.714Z,65.54
2019-03-18T11:55:17.454Z,64.20
2019-03-18T11:57:45.670Z,63.74
2019-03-18T12:00:18.601Z,64.27
2019-03-18T12:02:46.800Z,64.27
2019-03-18T12:05:25.628Z,63.82
2019-03-18T12:07:53.858Z,63.97
2019-03-18T12:10:25.364Z,63.68
2019-03-18T12:12:51.967Z,63.61
2019-03-18T12:15:21.779Z,63.37
2019-03-18T12:17:50.102Z,63.19
2019-03-18T12:20:24.846Z,62.55
2019-03-18T12:22:48.217Z,62.39
2019-03-18T12:25:16.432Z,62.88
2019-03-18T12:27:44.633Z,62.88
2019-03-18T12:30:16.103Z,62.88
2019-03-18T12:32:44.307Z,62.42
2019-03-18T12:35:12.531Z,61.48
2019-03-18T12:37:40.727Z,62.00
2019-03-18T12:40:14.085Z,62.57
2019-03-18T12:42:42.305Z,62.57
2019-03-18T12:45:19.971Z,62.25
2019-03-18T12:47:48.661Z,62.57
2019-03-18T12:50:18.885Z,62.91
2019-03-18T12:52:47.104Z,62.55
2019-03-18T12:55:15.295Z,62.68
2019-03-18T12:57:43.502Z,62.68
2019-03-18T13:00:19.663Z,63.10
2019-03-18T13:02:47.950Z,63.30
2019-03-18T13:05:16.143Z,65.38
2019-03-18T13:07:44.354Z,66.47
2019-03-18T13:10:14.897Z,66.20
2019-03-18T13:12:43.088Z,65.79
2019-03-18T13:15:13.972Z,65.11
2019-03-18T13:17:43.869Z,68.54
2019-03-18T13:20:13.806Z,68.54
2019-03-18T13:22:42.003Z,69.15
2019-03-18T13:25:15.110Z,68.82
2019-03-18T13:27:43.313Z,68.82
2019-03-18T13:30:16.149Z,68.40
2019-03-18T13:32:44.349Z,68.43
2019-03-18T13:35:12.556Z,68.33
2019-03-18T13:37:40.938Z,67.79
2019-03-18T13:40:11.065Z,67.70
2019-03-18T13:42:39.746Z,67.60
2019-03-18T13:45:11.213Z,67.63
2019-03-18T13:47:39.417Z,67.22
2019-03-18T13:50:12.515Z,67.31
2019-03-18T13:52:40.720Z,66.80
2019-03-18T13:55:09.189Z,65.58
2019-03-18T13:57:37.646Z,64.96
2019-03-18T14:00:16.785Z,64.72
2019-03-18T14:02:45.009Z,64.88
2019-03-18T14:05:13.215Z,64.98
2019-03-18T14:07:41.419Z,64.98
2019-03-18T14:10:20.900Z,65.17
2019-03-18T14:12:49.094Z,65.48
2019-03-18T14:15:20.904Z,66.99
2019-03-18T14:17:49.104Z,69.09
2019-03-18T14:20:19.783Z,68.64
2019-03-18T14:22:47.985Z,69.05
2019-03-18T14:25:16.177Z,68.54
2019-03-18T14:27:44.390Z,68.29
2019-03-18T14:30:17.351Z,68.36
2019-03-18T14:32:45.567Z,68.54
2019-03-18T14:35:13.904Z,68.75
2019-03-18T14:37:42.117Z,68.41
2019-03-18T14:40:17.833Z,67.67
2019-03-18T14:42:46.048Z,67.62
2019-03-18T14:45:24.621Z,67.11
2019-03-18T14:47:52.831Z,66.13
2019-03-18T14:50:21.034Z,65.37
2019-03-18T14:52:49.263Z,64.35
2019-03-18T14:55:18.176Z,64.35
2019-03-18T14:57:46.390Z,64.48
2019-03-18T15:00:23.608Z,63.43
2019-03-18T15:02:51.821Z,64.13
2019-03-18T15:05:20.022Z,64.11
2019-03-18T15:07:48.293Z,64.20
2019-03-18T15:10:23.462Z,64.49
2019-03-18T15:12:51.666Z,64.83
2019-03-18T15:15:19.931Z,64.78
2019-03-18T15:17:48.130Z,65.29
2019-03-18T15:20:17.890Z,65.17
2019-03-18T15:22:46.093Z,65.20
2019-03-18T15:25:27.740Z,65.15
2019-03-18T15:27:55.943Z,65.19
2019-03-18T15:30:24.147Z,65.99
2019-03-18T15:32:52.355Z,67.19
2019-03-18T15:35:20.549Z,68.05
2019-03-18T15:37:48.757Z,68.34
2019-03-18T15:40:20.826Z,68.51
2019-03-18T15:42:49.113Z,68.32
2019-03-18T15:45:18.253Z,68.44
2019-03-18T15:47:46.464Z,68.89
2019-03-18T15:50:16.406Z,69.25
2019-03-18T15:52:44.620Z,69.50
2019-03-18T15:55:12.816Z,69.26
2019-03-18T15:57:41.026Z,69.65
2019-03-18T16:00:12.120Z,69.89
2019-03-18T16:02:40.330Z,69.26
2019-03-18T16:05:08.858Z,69.09
2019-03-18T16:07:37.074Z,69.27
2019-03-18T16:10:08.415Z,69.26
2019-03-18T16:12:36.726Z,69.75
2019-03-18T16:15:07.168Z,69.26
2019-03-18T16:17:35.459Z,69.26
2019-03-18T16:20:04.221Z,68.86
2019-03-18T16:22:32.428Z,68.53
2019-03-18T16:25:00.633Z,67.93
2019-03-18T16:27:28.844Z,67.79
2019-03-18T16:29:57.043Z,67.55
2019-03-18T16:32:25.501Z,67.42
2019-03-18T16:34:53.702Z,67.36
2019-03-18T16:37:21.908Z,67.26
2019-03-18T16:39:50.357Z,66.82
2019-03-18T16:42:18.650Z,67.02
2019-03-18T16:44:46.844Z,66.89
2019-03-18T16:47:15.056Z,66.92
2019-03-18T16:49:43.257Z,67.14
2019-03-18T16:52:11.468Z,67.78
2019-03-18T16:54:39.680Z,68.41
2019-03-18T16:57:07.882Z,68.49
2019-03-18T16:59:36.083Z,68.01
2019-03-18T17:02:04.292Z,67.84
2019-03-18T17:04:32.498Z,67.50
2019-03-18T17:07:00.707Z,67.81
2019-03-18T17:09:28.909Z,68.08
2019-03-18T17:11:57.124Z,68.49
2019-03-18T17:14:25.319Z,68.86
2019-03-18T17:16:53.523Z,69.02
2019-03-18T17:19:21.738Z,69.06
2019-03-18T17:21:50.015Z,68.71
2019-03-18T17:24:18.226Z,68.71
2019-03-18T17:26:46.427Z,68.14
2019-03-18T17:29:14.644Z,67.93
2019-03-18T17:31:42.843Z,67.48
2019-03-18T17:34:11.040Z,66.95
2019-03-18T17:36:39.253Z,66.96
2019-03-18T17:39:08.007Z,66.92
2019-03-18T17:41:36.213Z,66.70
2019-03-18T17:44:04.416Z,66.26
2019-03-18T17:46:32.883Z,66.38
2019-03-18T17:49:01.334Z,65.92
2019-03-18T17:51:29.943Z,66.32
2019-03-18T17:53:58.301Z,66.46
2019-03-18T17:56:30.597Z,66.37
2019-03-18T17:58:56.727Z,66.20
2019-03-18T18:01:24.995Z,66.00
2019-03-18T18:03:53.209Z,66.11
2019-03-18T18:06:21.727Z,65.71
2019-03-18T18:08:49.936Z,65.94
2019-03-18T18:11:18.180Z,66.08
2019-03-18T18:13:46.672Z,66.24
2019-03-18T18:16:15.144Z,66.19
2019-03-18T18:18:43.645Z,66.26
2019-03-18T18:21:12.108Z,66.31
2019-03-18T18:23:40.600Z,66.39
2019-03-18T18:26:08.787Z,66.35
2019-03-18T18:28:37.064Z,66.34
2019-03-18T18:31:05.522Z,66.19
2019-03-18T18:33:34.023Z,66.15
2019-03-18T18:36:02.225Z,66.53
2019-03-18T18:38:30.443Z,66.64
2019-03-18T18:40:58.939Z,66.61
2019-03-18T18:43:27.438Z,66.67
2019-03-18T18:45:55.932Z,66.90
2019-03-18T18:48:24.384Z,67.01
2019-03-18T18:50:52.945Z,67.11
2019-03-18T18:53:26.410Z,67.13
2019-03-18T18:55:51.363Z,67.16
2019-03-18T18:58:19.560Z,67.21
2019-03-18T19:00:47.818Z,67.28
2019-03-18T19:03:16.290Z,67.36
2019-03-18T19:05:44.779Z,67.47
2019-03-18T19:08:13.250Z,67.79
2019-03-18T19:10:41.742Z,67.85
2019-03-18T19:13:10.216Z,68.01
2019-03-18T19:15:42.498Z,68.11
2019-03-18T19:18:10.759Z,68.09
2019-03-18T19:20:39.262Z,68.18
2019-03-18T19:23:07.724Z,68.15
2019-03-18T19:25:36.288Z,68.17
2019-03-18T19:28:05.324Z,68.31
2019-03-18T19:30:33.714Z,68.39
2019-03-18T19:33:03.807Z,68.46
2019-03-18T19:35:32.196Z,68.56
2019-03-18T19:38:00.517Z,68.64
2019-03-18T19:40:28.728Z,68.62
2019-03-18T19:42:57.053Z,68.46
2019-03-18T19:45:25.527Z,68.35
2019-03-18T19:47:53.768Z,68.17
2019-03-18T19:50:24.458Z,68.12
2019-03-18T19:52:52.910Z,68.30
2019-03-18T19:55:21.099Z,68.00
2019-03-18T19:57:49.550Z,68.15
2019-03-18T20:00:23.603Z,68.17
2019-03-18T20:02:51.929Z,68.16
2019-03-18T20:05:20.137Z,68.17
2019-03-18T20:07:48.605Z,68.17
2019-03-18T20:10:18.104Z,68.22
2019-03-18T20:12:46.590Z,68.33
2019-03-18T20:15:15.695Z,68.14
2019-03-18T20:17:44.056Z,67.98
2019-03-18T20:20:15.022Z,67.88
2019-03-18T20:22:43.611Z,67.85
2019-03-18T20:25:12.872Z,67.67
2019-03-18T20:27:41.090Z,67.51
2019-03-18T20:30:15.336Z,67.42
2019-03-18T20:32:43.552Z,67.32
2019-03-18T20:35:14.186Z,67.10
2019-03-18T20:37:42.660Z,67.10
2019-03-18T20:40:14.846Z,67.05
2019-03-18T20:42:43.202Z,67.05
2019-03-18T20:45:16.428Z,67.01
2019-03-18T20:47:44.830Z,66.93
2019-03-18T20:50:18.266Z,66.92
2019-03-18T20:52:46.862Z,66.87
2019-03-18T20:55:15.793Z,66.85
2019-03-18T20:57:44.348Z,66.86
2019-03-18T21:00:18.779Z,66.70
2019-03-18T21:02:46.984Z,66.62
2019-03-18T21:05:15.427Z,66.45
2019-03-18T21:07:43.880Z,66.43
2019-03-18T21:10:13.329Z,66.52
2019-03-18T21:12:41.873Z,66.58
2019-03-18T21:15:14.666Z,66.36
2019-03-18T21:17:42.923Z,66.35
2019-03-18T21:20:18.811Z,66.49
2019-03-18T21:22:47.065Z,66.43
2019-03-18T21:25:15.791Z,66.46
2019-03-18T21:27:43.997Z,66.39
2019-03-18T21:30:15.761Z,66.29
2019-03-18T21:32:43.989Z,66.17
2019-03-18T21:35:12.538Z,66.19
2019-03-18T21:37:40.752Z,66.29
2019-03-18T21:40:16.617Z,66.20
2019-03-18T21:42:45.177Z,66.23
2019-03-18T21:45:18.483Z,66.11
2019-03-18T21:47:46.747Z,66.16
2019-03-18T21:50:15.831Z,66.18
2019-03-18T21:52:44.041Z,66.09
2019-03-18T21:55:12.576Z,66.32
2019-03-18T21:57:40.798Z,66.44
2019-03-18T22:00:19.714Z,66.42
2019-03-18T22:02:47.942Z,66.62
2019-03-18T22:05:16.207Z,66.69
2019-03-18T22:07:44.488Z,66.70
2019-03-18T22:10:17.351Z,66.86
2019-03-18T22:12:46.139Z,67.04
2019-03-18T22:15:14.675Z,67.14
2019-03-18T22:17:42.872Z,67.19
2019-03-18T22:20:13.681Z,67.20
2019-03-18T22:22:41.896Z,67.16
2019-03-18T22:25:11.439Z,67.06
2019-03-18T22:27:39.630Z,67.27
2019-03-18T22:30:13.216Z,67.17
2019-03-18T22:32:41.576Z,67.15
2019-03-18T22:35:10.741Z,67.28
2019-03-18T22:37:38.936Z,67.30
2019-03-18T22:40:09.787Z,67.44
2019-03-18T22:42:37.988Z,67.47
2019-03-18T22:45:11.955Z,67.59
2019-03-18T22:47:40.150Z,67.86
2019-03-18T22:50:10.715Z,68.02
2019-03-18T22:52:38.875Z,68.13
2019-03-18T22:55:09.675Z,68.10
2019-03-18T22:57:38.348Z,68.15
2019-03-18T23:00:39.986Z,68.08
2019-03-18T23:03:08.179Z,67.93
2019-03-18T23:05:36.387Z,67.85
2019-03-18T23:08:04.833Z,67.71
2019-03-18T23:10:33.053Z,67.71
2019-03-18T23:13:01.239Z,67.80
2019-03-18T23:15:29.459Z,67.64
2019-03-18T23:17:57.656Z,67.54
2019-03-18T23:20:25.862Z,67.57
2019-03-18T23:22:54.077Z,67.27
2019-03-18T23:25:22.274Z,67.34
2019-03-18T23:27:50.477Z,67.44
2019-03-18T23:30:18.683Z,67.41
2019-03-18T23:32:46.885Z,67.38
2019-03-18T23:35:15.147Z,67.36
2019-03-18T23:37:43.342Z,67.42
2019-03-18T23:40:12.494Z,67.42
2019-03-18T23:42:40.690Z,67.30
2019-03-18T23:45:09.437Z,67.34
2019-03-18T23:47:37.634Z,67.32
2019-03-18T23:50:10.525Z,67.37
2019-03-18T23:52:38.805Z,67.42
2019-03-18T23:55:18.162Z,67.32
2019-03-18T23:57:38.279Z,67.23
